Terminal Aerodrome Forecast
Issued by NWS Sioux Falls, SD

Home | Current Version | Previous Version | Graphics & Text | Print | Product List | Glossary On
Versions: 1 2 3 4 5 6 7 8 9 10 11 12 13 14 15 16 17 18 19
000
FTUS43 KFSD 301629 AAA
TAFFSD
TAF AMD
KFSD 301629Z 3016/3112 03013G19KT P6SM SCT025
      TEMPO 3016/3018 BKN025
     FM302300 04011KT P6SM FEW030
     FM310200 08005KT P6SM FEW200=

USA.gov is the U.S. government's official web portal to all federal, state and local government web resources and services.